sensor_id;sensor_type;location;lat;lon;timestamp;P1;durP1;ratioP1;P2;durP2;ratioP2
7495;SDS011;3789;47.064;15.482;2022-07-04T00:01:49;6.07;;;4.68;;
7495;SDS011;3789;47.064;15.482;2022-07-04T00:04:20;5.60;;;4.55;;
7495;SDS011;3789;47.064;15.482;2022-07-04T00:06:48;4.80;;;4.40;;
7495;SDS011;3789;47.064;15.482;2022-07-04T00:09:18;4.60;;;4.20;;
7495;SDS011;3789;47.064;15.482;2022-07-04T00:11:49;4.97;;;4.47;;
7495;SDS011;3789;47.064;15.482;2022-07-04T00:14:17;4.90;;;4.45;;
7495;SDS011;3789;47.064;15.482;2022-07-04T00:16:48;4.95;;;4.18;;
7495;SDS011;3789;47.064;15.482;2022-07-04T00:19:17;4.95;;;4.55;;
7495;SDS011;3789;47.064;15.482;2022-07-04T00:21:52;4.65;;;4.25;;
7495;SDS011;3789;47.064;15.482;2022-07-04T00:24:22;5.18;;;4.40;;
7495;SDS011;3789;47.064;15.482;2022-07-04T00:26:53;4.82;;;4.10;;
7495;SDS011;3789;47.064;15.482;2022-07-04T00:29:22;5.35;;;4.47;;
7495;SDS011;3789;47.064;15.482;2022-07-04T00:31:50;5.32;;;4.30;;
7495;SDS011;3789;47.064;15.482;2022-07-04T00:34:22;5.97;;;4.00;;
7495;SDS011;3789;47.064;15.482;2022-07-04T00:36:55;4.70;;;4.30;;
7495;SDS011;3789;47.064;15.482;2022-07-04T00:39:24;6.90;;;5.13;;
7495;SDS011;3789;47.064;15.482;2022-07-04T00:42:08;5.45;;;4.72;;
7495;SDS011;3789;47.064;15.482;2022-07-04T00:44:40;5.30;;;4.60;;
7495;SDS011;3789;47.064;15.482;2022-07-04T00:47:10;4.97;;;4.47;;
7495;SDS011;3789;47.064;15.482;2022-07-04T00:49:40;5.13;;;4.43;;
7495;SDS011;3789;47.064;15.482;2022-07-04T00:52:10;5.07;;;4.53;;
7495;SDS011;3789;47.064;15.482;2022-07-04T00:54:55;4.72;;;4.32;;
7495;SDS011;3789;47.064;15.482;2022-07-04T00:57:26;5.15;;;4.72;;
7495;SDS011;3789;47.064;15.482;2022-07-04T00:59:55;4.60;;;4.22;;
7495;SDS011;3789;47.064;15.482;2022-07-04T01:02:24;5.28;;;4.78;;
7495;SDS011;3789;47.064;15.482;2022-07-04T01:04:54;5.47;;;4.53;;
7495;SDS011;3789;47.064;15.482;2022-07-04T01:07:32;6.97;;;4.75;;
7495;SDS011;3789;47.064;15.482;2022-07-04T01:10:02;7.15;;;4.72;;
7495;SDS011;3789;47.064;15.482;2022-07-04T01:12:31;6.43;;;4.47;;
7495;SDS011;3789;47.064;15.482;2022-07-04T01:15:04;4.95;;;4.53;;
7495;SDS011;3789;47.064;15.482;2022-07-04T01:17:35;7.15;;;4.97;;
7495;SDS011;3789;47.064;15.482;2022-07-04T01:20:09;5.72;;;5.15;;
7495;SDS011;3789;47.064;15.482;2022-07-04T01:22:41;5.63;;;4.78;;
7495;SDS011;3789;47.064;15.482;2022-07-04T01:25:10;5.68;;;5.00;;
7495;SDS011;3789;47.064;15.482;2022-07-04T01:27:41;5.35;;;4.85;;
7495;SDS011;3789;47.064;15.482;2022-07-04T01:30:17;5.60;;;5.10;;
7495;SDS011;3789;47.064;15.482;2022-07-04T01:32:44;5.22;;;4.72;;
7495;SDS011;3789;47.064;15.482;2022-07-04T01:35:11;5.28;;;4.78;;
7495;SDS011;3789;47.064;15.482;2022-07-04T01:37:38;5.57;;;5.00;;
7495;SDS011;3789;47.064;15.482;2022-07-04T01:40:05;5.68;;;5.18;;
7495;SDS011;3789;47.064;15.482;2022-07-04T01:42:33;5.68;;;5.18;;
7495;SDS011;3789;47.064;15.482;2022-07-04T01:45:00;7.65;;;5.50;;
7495;SDS011;3789;47.064;15.482;2022-07-04T01:47:27;5.63;;;5.03;;
7495;SDS011;3789;47.064;15.482;2022-07-04T01:49:54;5.28;;;4.72;;
7495;SDS011;3789;47.064;15.482;2022-07-04T01:52:21;5.22;;;4.72;;
7495;SDS011;3789;47.064;15.482;2022-07-04T01:54:48;5.70;;;4.68;;
7495;SDS011;3789;47.064;15.482;2022-07-04T01:57:15;5.45;;;4.95;;
7495;SDS011;3789;47.064;15.482;2022-07-04T01:59:42;5.65;;;5.15;;
7495;SDS011;3789;47.064;15.482;2022-07-04T02:02:28;5.03;;;4.53;;
7495;SDS011;3789;47.064;15.482;2022-07-04T02:04:55;6.50;;;5.05;;
7495;SDS011;3789;47.064;15.482;2022-07-04T02:07:23;6.05;;;5.07;;
7495;SDS011;3789;47.064;15.482;2022-07-04T02:09:50;5.55;;;5.00;;
7495;SDS011;3789;47.064;15.482;2022-07-04T02:12:17;5.63;;;5.07;;
7495;SDS011;3789;47.064;15.482;2022-07-04T02:15:03;5.78;;;4.95;;
7495;SDS011;3789;47.064;15.482;2022-07-04T02:17:32;5.30;;;4.90;;
7495;SDS011;3789;47.064;15.482;2022-07-04T02:20:00;5.50;;;5.00;;
7495;SDS011;3789;47.064;15.482;2022-07-04T02:22:27;5.13;;;4.63;;
7495;SDS011;3789;47.064;15.482;2022-07-04T02:24:54;5.07;;;4.63;;
7495;SDS011;3789;47.064;15.482;2022-07-04T02:27:21;4.90;;;4.50;;
7495;SDS011;3789;47.064;15.482;2022-07-04T02:29:48;5.03;;;4.53;;
7495;SDS011;3789;47.064;15.482;2022-07-04T02:32:15;4.85;;;4.30;;
7495;SDS011;3789;47.064;15.482;2022-07-04T02:34:43;5.88;;;5.13;;
7495;SDS011;3789;47.064;15.482;2022-07-04T02:37:10;5.40;;;4.93;;
7495;SDS011;3789;47.064;15.482;2022-07-04T02:39:38;5.57;;;5.07;;
7495;SDS011;3789;47.064;15.482;2022-07-04T02:42:05;5.82;;;5.28;;
7495;SDS011;3789;47.064;15.482;2022-07-04T02:44:32;4.90;;;4.50;;
7495;SDS011;3789;47.064;15.482;2022-07-04T02:46:59;5.20;;;4.70;;
7495;SDS011;3789;47.064;15.482;2022-07-04T02:49:26;5.10;;;4.70;;
7495;SDS011;3789;47.064;15.482;2022-07-04T02:51:55;5.40;;;4.90;;
7495;SDS011;3789;47.064;15.482;2022-07-04T02:54:22;5.18;;;4.68;;
7495;SDS011;3789;47.064;15.482;2022-07-04T02:56:49;5.55;;;5.05;;
7495;SDS011;3789;47.064;15.482;2022-07-04T02:59:16;5.50;;;5.00;;
7495;SDS011;3789;47.064;15.482;2022-07-04T03:01:43;5.15;;;4.75;;
7495;SDS011;3789;47.064;15.482;2022-07-04T03:04:10;5.90;;;5.07;;
7495;SDS011;3789;47.064;15.482;2022-07-04T03:06:38;5.18;;;4.78;;
7495;SDS011;3789;47.064;15.482;2022-07-04T03:09:06;5.40;;;4.90;;
7495;SDS011;3789;47.064;15.482;2022-07-04T03:11:33;5.40;;;4.90;;
7495;SDS011;3789;47.064;15.482;2022-07-04T03:14:01;5.28;;;4.78;;
7495;SDS011;3789;47.064;15.482;2022-07-04T03:16:28;5.57;;;5.10;;
7495;SDS011;3789;47.064;15.482;2022-07-04T03:18:55;5.57;;;4.97;;
7495;SDS011;3789;47.064;15.482;2022-07-04T03:21:23;5.65;;;5.15;;
7495;SDS011;3789;47.064;15.482;2022-07-04T03:23:50;5.50;;;5.00;;
7495;SDS011;3789;47.064;15.482;2022-07-04T03:26:27;7.30;;;5.78;;
7495;SDS011;3789;47.064;15.482;2022-07-04T03:28:57;5.75;;;5.13;;
7495;SDS011;3789;47.064;15.482;2022-07-04T03:31:25;5.38;;;4.90;;
7495;SDS011;3789;47.064;15.482;2022-07-04T03:33:54;5.95;;;5.45;;
7495;SDS011;3789;47.064;15.482;2022-07-04T03:36:22;5.72;;;5.13;;
7495;SDS011;3789;47.064;15.482;2022-07-04T03:38:49;8.75;;;5.75;;
7495;SDS011;3789;47.064;15.482;2022-07-04T03:41:16;5.97;;;5.40;;
7495;SDS011;3789;47.064;15.482;2022-07-04T03:43:43;8.07;;;5.40;;
7495;SDS011;3789;47.064;15.482;2022-07-04T03:46:10;5.88;;;5.38;;
7495;SDS011;3789;47.064;15.482;2022-07-04T03:48:37;6.63;;;5.88;;
7495;SDS011;3789;47.064;15.482;2022-07-04T03:51:04;6.13;;;5.63;;
7495;SDS011;3789;47.064;15.482;2022-07-04T03:53:32;5.63;;;5.20;;
7495;SDS011;3789;47.064;15.482;2022-07-04T03:55:59;5.80;;;5.28;;
7495;SDS011;3789;47.064;15.482;2022-07-04T03:58:26;6.20;;;5.28;;
7495;SDS011;3789;47.064;15.482;2022-07-04T04:00:54;6.03;;;5.45;;
7495;SDS011;3789;47.064;15.482;2022-07-04T04:03:21;5.40;;;5.00;;
7495;SDS011;3789;47.064;15.482;2022-07-04T04:06:11;5.50;;;5.05;;
7495;SDS011;3789;47.064;15.482;2022-07-04T04:08:39;5.45;;;4.95;;
7495;SDS011;3789;47.064;15.482;2022-07-04T04:11:06;5.65;;;5.15;;
7495;SDS011;3789;47.064;15.482;2022-07-04T04:13:33;5.97;;;5.38;;
7495;SDS011;3789;47.064;15.482;2022-07-04T04:16:00;6.07;;;5.47;;
7495;SDS011;3789;47.064;15.482;2022-07-04T04:18:27;5.82;;;5.32;;
7495;SDS011;3789;47.064;15.482;2022-07-04T04:20:54;6.20;;;5.32;;
7495;SDS011;3789;47.064;15.482;2022-07-04T04:23:21;5.38;;;4.88;;
7495;SDS011;3789;47.064;15.482;2022-07-04T04:25:49;5.97;;;5.47;;
7495;SDS011;3789;47.064;15.482;2022-07-04T04:28:21;6.13;;;5.20;;
7495;SDS011;3789;47.064;15.482;2022-07-04T04:30:49;6.05;;;5.55;;
7495;SDS011;3789;47.064;15.482;2022-07-04T04:33:17;6.28;;;5.18;;
7495;SDS011;3789;47.064;15.482;2022-07-04T04:35:44;5.82;;;5.25;;
7495;SDS011;3789;47.064;15.482;2022-07-04T04:38:11;5.18;;;4.72;;
7495;SDS011;3789;47.064;15.482;2022-07-04T04:40:38;5.50;;;5.00;;
7495;SDS011;3789;47.064;15.482;2022-07-04T04:43:05;5.50;;;5.00;;
7495;SDS011;3789;47.064;15.482;2022-07-04T04:45:32;5.18;;;4.78;;
7495;SDS011;3789;47.064;15.482;2022-07-04T04:48:00;5.78;;;5.28;;
7495;SDS011;3789;47.064;15.482;2022-07-04T04:50:27;6.05;;;5.00;;
7495;SDS011;3789;47.064;15.482;2022-07-04T04:52:54;5.35;;;4.88;;
7495;SDS011;3789;47.064;15.482;2022-07-04T04:55:21;5.20;;;4.70;;
7495;SDS011;3789;47.064;15.482;2022-07-04T04:57:48;6.43;;;4.95;;
7495;SDS011;3789;47.064;15.482;2022-07-04T05:00:15;7.10;;;5.28;;
7495;SDS011;3789;47.064;15.482;2022-07-04T05:02:43;6.68;;;5.70;;
7495;SDS011;3789;47.064;15.482;2022-07-04T05:05:11;5.95;;;5.07;;
7495;SDS011;3789;47.064;15.482;2022-07-04T05:07:38;5.60;;;5.10;;
7495;SDS011;3789;47.064;15.482;2022-07-04T05:10:05;6.70;;;5.10;;
7495;SDS011;3789;47.064;15.482;2022-07-04T05:12:33;5.22;;;4.82;;
7495;SDS011;3789;47.064;15.482;2022-07-04T05:15:05;5.15;;;4.75;;
7495;SDS011;3789;47.064;15.482;2022-07-04T05:17:32;5.75;;;5.25;;
7495;SDS011;3789;47.064;15.482;2022-07-04T05:19:59;5.75;;;5.25;;
7495;SDS011;3789;47.064;15.482;2022-07-04T05:22:27;5.90;;;4.95;;
7495;SDS011;3789;47.064;15.482;2022-07-04T05:24:54;5.30;;;4.90;;
7495;SDS011;3789;47.064;15.482;2022-07-04T05:27:21;5.22;;;4.70;;
7495;SDS011;3789;47.064;15.482;2022-07-04T05:29:48;6.18;;;4.68;;
7495;SDS011;3789;47.064;15.482;2022-07-04T05:32:20;5.70;;;5.20;;
7495;SDS011;3789;47.064;15.482;2022-07-04T05:34:47;6.13;;;5.07;;
7495;SDS011;3789;47.064;15.482;2022-07-04T05:37:14;5.70;;;5.10;;
7495;SDS011;3789;47.064;15.482;2022-07-04T05:39:41;5.55;;;5.03;;
7495;SDS011;3789;47.064;15.482;2022-07-04T05:42:09;5.63;;;5.00;;
7495;SDS011;3789;47.064;15.482;2022-07-04T05:44:36;5.78;;;4.70;;
7495;SDS011;3789;47.064;15.482;2022-07-04T05:47:03;5.35;;;4.93;;
7495;SDS011;3789;47.064;15.482;2022-07-04T05:49:30;7.07;;;5.03;;
7495;SDS011;3789;47.064;15.482;2022-07-04T05:51:57;5.82;;;4.50;;
7495;SDS011;3789;47.064;15.482;2022-07-04T05:54:24;5.72;;;4.95;;
7495;SDS011;3789;47.064;15.482;2022-07-04T05:56:52;6.53;;;5.00;;
7495;SDS011;3789;47.064;15.482;2022-07-04T05:59:19;7.60;;;4.75;;
7495;SDS011;3789;47.064;15.482;2022-07-04T06:01:46;6.22;;;4.50;;
7495;SDS011;3789;47.064;15.482;2022-07-04T06:04:13;4.53;;;4.22;;
7495;SDS011;3789;47.064;15.482;2022-07-04T06:06:40;5.03;;;4.63;;
7495;SDS011;3789;47.064;15.482;2022-07-04T06:09:07;5.28;;;4.85;;
7495;SDS011;3789;47.064;15.482;2022-07-04T06:11:40;5.65;;;4.97;;
7495;SDS011;3789;47.064;15.482;2022-07-04T06:14:07;4.95;;;4.55;;
7495;SDS011;3789;47.064;15.482;2022-07-04T06:16:34;6.63;;;5.25;;
7495;SDS011;3789;47.064;15.482;2022-07-04T06:19:01;5.50;;;5.07;;
7495;SDS011;3789;47.064;15.482;2022-07-04T06:21:29;5.35;;;4.32;;
7495;SDS011;3789;47.064;15.482;2022-07-04T06:23:56;6.93;;;5.22;;
7495;SDS011;3789;47.064;15.482;2022-07-04T06:26:24;6.88;;;5.05;;
7495;SDS011;3789;47.064;15.482;2022-07-04T06:28:52;5.55;;;5.03;;
7495;SDS011;3789;47.064;15.482;2022-07-04T06:31:19;5.70;;;5.00;;
7495;SDS011;3789;47.064;15.482;2022-07-04T06:33:46;6.45;;;4.45;;
7495;SDS011;3789;47.064;15.482;2022-07-04T06:36:33;5.50;;;5.00;;
7495;SDS011;3789;47.064;15.482;2022-07-04T06:39:00;6.45;;;5.72;;
7495;SDS011;3789;47.064;15.482;2022-07-04T06:41:28;5.45;;;4.65;;
7495;SDS011;3789;47.064;15.482;2022-07-04T06:43:55;6.82;;;5.30;;
7495;SDS011;3789;47.064;15.482;2022-07-04T06:46:22;7.05;;;4.90;;
7495;SDS011;3789;47.064;15.482;2022-07-04T06:48:49;6.30;;;5.05;;
7495;SDS011;3789;47.064;15.482;2022-07-04T06:51:17;6.60;;;5.32;;
7495;SDS011;3789;47.064;15.482;2022-07-04T06:53:44;7.35;;;5.03;;
7495;SDS011;3789;47.064;15.482;2022-07-04T06:56:12;5.03;;;4.63;;
7495;SDS011;3789;47.064;15.482;2022-07-04T06:58:39;5.50;;;5.00;;
7495;SDS011;3789;47.064;15.482;2022-07-04T07:01:07;6.10;;;4.95;;
7495;SDS011;3789;47.064;15.482;2022-07-04T07:03:34;7.45;;;4.82;;
7495;SDS011;3789;47.064;15.482;2022-07-04T07:06:01;5.88;;;5.38;;
7495;SDS011;3789;47.064;15.482;2022-07-04T07:08:29;6.45;;;5.50;;
7495;SDS011;3789;47.064;15.482;2022-07-04T07:10:57;6.13;;;5.53;;
7495;SDS011;3789;47.064;15.482;2022-07-04T07:13:40;5.50;;;5.00;;
7495;SDS011;3789;47.064;15.482;2022-07-04T07:16:08;6.40;;;5.45;;
7495;SDS011;3789;47.064;15.482;2022-07-04T07:18:36;5.15;;;4.75;;
7495;SDS011;3789;47.064;15.482;2022-07-04T07:21:03;5.75;;;5.25;;
7495;SDS011;3789;47.064;15.482;2022-07-04T07:23:33;6.35;;;5.63;;
7495;SDS011;3789;47.064;15.482;2022-07-04T07:26:03;6.80;;;5.38;;
7495;SDS011;3789;47.064;15.482;2022-07-04T07:28:30;7.57;;;5.63;;
7495;SDS011;3789;47.064;15.482;2022-07-04T07:30:57;6.72;;;5.60;;
7495;SDS011;3789;47.064;15.482;2022-07-04T07:33:24;6.55;;;5.00;;
7495;SDS011;3789;47.064;15.482;2022-07-04T07:35:52;6.13;;;5.45;;
7495;SDS011;3789;47.064;15.482;2022-07-04T07:38:19;6.15;;;5.55;;
7495;SDS011;3789;47.064;15.482;2022-07-04T07:40:46;5.32;;;4.93;;
7495;SDS011;3789;47.064;15.482;2022-07-04T07:43:13;6.90;;;5.22;;
7495;SDS011;3789;47.064;15.482;2022-07-04T07:45:40;5.45;;;4.95;;
7495;SDS011;3789;47.064;15.482;2022-07-04T07:48:08;6.15;;;4.88;;
7495;SDS011;3789;47.064;15.482;2022-07-04T07:50:35;6.30;;;5.10;;
7495;SDS011;3789;47.064;15.482;2022-07-04T07:53:02;6.85;;;5.68;;
7495;SDS011;3789;47.064;15.482;2022-07-04T07:55:30;5.65;;;5.00;;
7495;SDS011;3789;47.064;15.482;2022-07-04T07:57:57;6.05;;;4.85;;
7495;SDS011;3789;47.064;15.482;2022-07-04T08:00:25;5.10;;;4.70;;
7495;SDS011;3789;47.064;15.482;2022-07-04T08:03:12;6.22;;;5.03;;
7495;SDS011;3789;47.064;15.482;2022-07-04T08:05:58;4.70;;;3.83;;
7495;SDS011;3789;47.064;15.482;2022-07-04T08:08:25;4.60;;;4.05;;
7495;SDS011;3789;47.064;15.482;2022-07-04T08:10:53;4.10;;;3.80;;
7495;SDS011;3789;47.064;15.482;2022-07-04T08:13:20;3.50;;;3.20;;
7495;SDS011;3789;47.064;15.482;2022-07-04T08:15:47;4.05;;;3.70;;
7495;SDS011;3789;47.064;15.482;2022-07-04T08:18:14;4.55;;;4.15;;
7495;SDS011;3789;47.064;15.482;2022-07-04T08:20:43;4.88;;;4.47;;
7495;SDS011;3789;47.064;15.482;2022-07-04T08:23:26;6.20;;;4.45;;
7495;SDS011;3789;47.064;15.482;2022-07-04T08:25:58;4.32;;;3.92;;
7495;SDS011;3789;47.064;15.482;2022-07-04T08:28:26;3.83;;;3.53;;
7495;SDS011;3789;47.064;15.482;2022-07-04T08:30:54;4.00;;;3.63;;
7495;SDS011;3789;47.064;15.482;2022-07-04T08:33:23;3.70;;;3.50;;
7495;SDS011;3789;47.064;15.482;2022-07-04T08:35:50;3.92;;;3.63;;
7495;SDS011;3789;47.064;15.482;2022-07-04T08:38:19;4.15;;;3.85;;
7495;SDS011;3789;47.064;15.482;2022-07-04T08:40:47;4.47;;;3.90;;
7495;SDS011;3789;47.064;15.482;2022-07-04T08:43:16;4.28;;;3.90;;
7495;SDS011;3789;47.064;15.482;2022-07-04T08:45:49;5.10;;;4.00;;
7495;SDS011;3789;47.064;15.482;2022-07-04T08:48:38;4.38;;;4.05;;
7495;SDS011;3789;47.064;15.482;2022-07-04T08:51:12;5.65;;;4.60;;
7495;SDS011;3789;47.064;15.482;2022-07-04T08:53:50;4.22;;;3.92;;
7495;SDS011;3789;47.064;15.482;2022-07-04T08:56:22;4.80;;;4.40;;
7495;SDS011;3789;47.064;15.482;2022-07-04T08:59:08;4.68;;;4.28;;
7495;SDS011;3789;47.064;15.482;2022-07-04T09:01:36;4.40;;;4.10;;
7495;SDS011;3789;47.064;15.482;2022-07-04T09:04:08;4.32;;;3.97;;
7495;SDS011;3789;47.064;15.482;2022-07-04T09:06:37;5.63;;;3.92;;
7495;SDS011;3789;47.064;15.482;2022-07-04T09:09:04;5.78;;;4.00;;
7495;SDS011;3789;47.064;15.482;2022-07-04T09:11:34;4.95;;;4.43;;
7495;SDS011;3789;47.064;15.482;2022-07-04T09:14:01;4.63;;;3.90;;
7495;SDS011;3789;47.064;15.482;2022-07-04T09:16:29;4.60;;;4.15;;
7495;SDS011;3789;47.064;15.482;2022-07-04T09:18:56;4.43;;;4.03;;
7495;SDS011;3789;47.064;15.482;2022-07-04T09:24:19;6.57;;;4.13;;
7495;SDS011;3789;47.064;15.482;2022-07-04T09:27:30;4.35;;;3.95;;
7495;SDS011;3789;47.064;15.482;2022-07-04T09:30:17;3.97;;;3.67;;
7495;SDS011;3789;47.064;15.482;2022-07-04T09:32:49;4.45;;;4.03;;
7495;SDS011;3789;47.064;15.482;2022-07-04T09:35:20;4.28;;;3.60;;
7495;SDS011;3789;47.064;15.482;2022-07-04T09:37:55;5.25;;;4.18;;
7495;SDS011;3789;47.064;15.482;2022-07-04T09:40:30;4.45;;;4.05;;
7495;SDS011;3789;47.064;15.482;2022-07-04T09:43:24;4.60;;;4.20;;
7495;SDS011;3789;47.064;15.482;2022-07-04T09:45:54;6.07;;;4.50;;
7495;SDS011;3789;47.064;15.482;2022-07-04T09:48:23;4.70;;;4.30;;
7495;SDS011;3789;47.064;15.482;2022-07-04T09:50:50;5.93;;;4.38;;
7495;SDS011;3789;47.064;15.482;2022-07-04T09:53:18;4.45;;;4.05;;
7495;SDS011;3789;47.064;15.482;2022-07-04T09:55:45;4.75;;;4.38;;
7495;SDS011;3789;47.064;15.482;2022-07-04T09:58:13;4.53;;;3.92;;
7495;SDS011;3789;47.064;15.482;2022-07-04T10:00:45;4.22;;;3.92;;
7495;SDS011;3789;47.064;15.482;2022-07-04T10:03:18;4.63;;;4.22;;
7495;SDS011;3789;47.064;15.482;2022-07-04T10:06:02;4.78;;;4.38;;
7495;SDS011;3789;47.064;15.482;2022-07-04T10:08:31;5.15;;;4.22;;
7495;SDS011;3789;47.064;15.482;2022-07-04T10:11:00;5.18;;;4.68;;
7495;SDS011;3789;47.064;15.482;2022-07-04T10:13:34;5.35;;;4.85;;
7495;SDS011;3789;47.064;15.482;2022-07-04T10:16:02;5.50;;;4.40;;
7495;SDS011;3789;47.064;15.482;2022-07-04T10:18:29;5.05;;;4.53;;
7495;SDS011;3789;47.064;15.482;2022-07-04T10:20:56;5.75;;;4.30;;
7495;SDS011;3789;47.064;15.482;2022-07-04T10:23:24;4.72;;;4.28;;
7495;SDS011;3789;47.064;15.482;2022-07-04T10:25:57;4.93;;;4.53;;
7495;SDS011;3789;47.064;15.482;2022-07-04T10:28:25;4.88;;;4.47;;
7495;SDS011;3789;47.064;15.482;2022-07-04T10:30:54;5.38;;;4.35;;
7495;SDS011;3789;47.064;15.482;2022-07-04T10:33:24;4.82;;;4.53;;
7495;SDS011;3789;47.064;15.482;2022-07-04T10:38:24;4.68;;;4.28;;
7495;SDS011;3789;47.064;15.482;2022-07-04T10:41:03;4.32;;;4.03;;
7495;SDS011;3789;47.064;15.482;2022-07-04T10:48:34;4.93;;;4.20;;
7495;SDS011;3789;47.064;15.482;2022-07-04T10:51:04;6.05;;;4.68;;
7495;SDS011;3789;47.064;15.482;2022-07-04T10:53:56;5.13;;;4.72;;
7495;SDS011;3789;47.064;15.482;2022-07-04T10:56:37;5.10;;;4.70;;
7495;SDS011;3789;47.064;15.482;2022-07-04T10:59:07;4.90;;;4.50;;
7495;SDS011;3789;47.064;15.482;2022-07-04T11:01:50;5.40;;;4.47;;
7495;SDS011;3789;47.064;15.482;2022-07-04T11:04:50;5.13;;;4.72;;
7495;SDS011;3789;47.064;15.482;2022-07-04T11:07:23;4.10;;;3.80;;
7495;SDS011;3789;47.064;15.482;2022-07-04T11:18:00;5.68;;;4.40;;
7495;SDS011;3789;47.064;15.482;2022-07-04T11:20:30;4.55;;;4.10;;
7495;SDS011;3789;47.064;15.482;2022-07-04T11:23:11;4.90;;;4.53;;
7495;SDS011;3789;47.064;15.482;2022-07-04T11:25:41;4.95;;;4.45;;
7495;SDS011;3789;47.064;15.482;2022-07-04T11:28:19;5.22;;;4.78;;
7495;SDS011;3789;47.064;15.482;2022-07-04T11:31:06;4.35;;;4.03;;
7495;SDS011;3789;47.064;15.482;2022-07-04T11:33:37;3.72;;;3.40;;
7495;SDS011;3789;47.064;15.482;2022-07-04T11:39:01;4.10;;;3.80;;
7495;SDS011;3789;47.064;15.482;2022-07-04T11:44:24;5.45;;;4.40;;
7495;SDS011;3789;47.064;15.482;2022-07-04T11:47:12;4.35;;;3.95;;
7495;SDS011;3789;47.064;15.482;2022-07-04T11:49:52;3.92;;;3.63;;
7495;SDS011;3789;47.064;15.482;2022-07-04T11:55:51;3.90;;;3.60;;
7495;SDS011;3789;47.064;15.482;2022-07-04T11:58:40;3.88;;;3.58;;
7495;SDS011;3789;47.064;15.482;2022-07-04T12:01:10;3.63;;;3.33;;
7495;SDS011;3789;47.064;15.482;2022-07-04T12:03:37;4.22;;;3.92;;
7495;SDS011;3789;47.064;15.482;2022-07-04T12:06:05;4.43;;;3.83;;
7495;SDS011;3789;47.064;15.482;2022-07-04T12:08:35;3.90;;;3.60;;
7495;SDS011;3789;47.064;15.482;2022-07-04T12:11:02;4.07;;;3.78;;
7495;SDS011;3789;47.064;15.482;2022-07-04T12:13:30;4.03;;;3.72;;
7495;SDS011;3789;47.064;15.482;2022-07-04T12:15:57;4.20;;;3.90;;
7495;SDS011;3789;47.064;15.482;2022-07-04T12:18:25;4.78;;;3.90;;
7495;SDS011;3789;47.064;15.482;2022-07-04T12:21:13;4.43;;;4.13;;
7495;SDS011;3789;47.064;15.482;2022-07-04T12:23:54;4.47;;;4.07;;
7495;SDS011;3789;47.064;15.482;2022-07-04T12:26:49;4.50;;;4.10;;
7495;SDS011;3789;47.064;15.482;2022-07-04T12:29:25;4.40;;;4.10;;
7495;SDS011;3789;47.064;15.482;2022-07-04T12:31:57;4.63;;;4.22;;
7495;SDS011;3789;47.064;15.482;2022-07-04T12:34:25;5.22;;;4.72;;
7495;SDS011;3789;47.064;15.482;2022-07-04T12:36:53;4.43;;;4.03;;
7495;SDS011;3789;47.064;15.482;2022-07-04T12:39:31;4.78;;;4.38;;
7495;SDS011;3789;47.064;15.482;2022-07-04T12:42:08;4.65;;;4.25;;
7495;SDS011;3789;47.064;15.482;2022-07-04T12:44:39;4.57;;;4.00;;
7495;SDS011;3789;47.064;15.482;2022-07-04T12:47:08;4.80;;;4.40;;
7495;SDS011;3789;47.064;15.482;2022-07-04T12:49:43;5.45;;;4.95;;
7495;SDS011;3789;47.064;15.482;2022-07-04T12:54:41;5.30;;;4.88;;
7495;SDS011;3789;47.064;15.482;2022-07-04T12:57:12;4.40;;;4.05;;
7495;SDS011;3789;47.064;15.482;2022-07-04T12:59:41;4.70;;;4.30;;
7495;SDS011;3789;47.064;15.482;2022-07-04T13:02:09;4.60;;;4.20;;
7495;SDS011;3789;47.064;15.482;2022-07-04T13:04:38;4.50;;;4.20;;
7495;SDS011;3789;47.064;15.482;2022-07-04T13:09:59;4.95;;;4.45;;
7495;SDS011;3789;47.064;15.482;2022-07-04T13:12:26;5.07;;;4.63;;
7495;SDS011;3789;47.064;15.482;2022-07-04T13:14:56;4.43;;;4.03;;
7495;SDS011;3789;47.064;15.482;2022-07-04T13:17:24;5.82;;;4.38;;
7495;SDS011;3789;47.064;15.482;2022-07-04T13:19:52;4.53;;;4.13;;
7495;SDS011;3789;47.064;15.482;2022-07-04T13:22:20;4.70;;;4.25;;
7495;SDS011;3789;47.064;15.482;2022-07-04T13:24:48;4.80;;;4.40;;
7495;SDS011;3789;47.064;15.482;2022-07-04T13:27:17;4.50;;;4.10;;
7495;SDS011;3789;47.064;15.482;2022-07-04T13:29:44;4.45;;;4.05;;
7495;SDS011;3789;47.064;15.482;2022-07-04T13:32:12;4.80;;;4.50;;
7495;SDS011;3789;47.064;15.482;2022-07-04T13:34:39;5.13;;;4.63;;
7495;SDS011;3789;47.064;15.482;2022-07-04T13:37:06;4.45;;;4.15;;
7495;SDS011;3789;47.064;15.482;2022-07-04T13:39:34;4.60;;;4.25;;
7495;SDS011;3789;47.064;15.482;2022-07-04T13:42:18;4.55;;;4.20;;
7495;SDS011;3789;47.064;15.482;2022-07-04T13:45:05;7.25;;;4.35;;
7495;SDS011;3789;47.064;15.482;2022-07-04T13:47:34;4.78;;;4.40;;
7495;SDS011;3789;47.064;15.482;2022-07-04T13:50:02;4.55;;;4.20;;
7495;SDS011;3789;47.064;15.482;2022-07-04T13:52:29;4.63;;;4.13;;
7495;SDS011;3789;47.064;15.482;2022-07-04T13:54:57;4.40;;;4.10;;
7495;SDS011;3789;47.064;15.482;2022-07-04T13:57:25;4.85;;;4.45;;
7495;SDS011;3789;47.064;15.482;2022-07-04T13:59:52;4.70;;;4.32;;
7495;SDS011;3789;47.064;15.482;2022-07-04T14:02:19;4.13;;;3.83;;
7495;SDS011;3789;47.064;15.482;2022-07-04T14:04:46;4.60;;;4.20;;
7495;SDS011;3789;47.064;15.482;2022-07-04T14:07:13;4.53;;;4.13;;
7495;SDS011;3789;47.064;15.482;2022-07-04T14:09:45;4.80;;;4.40;;
7495;SDS011;3789;47.064;15.482;2022-07-04T14:12:13;5.03;;;4.65;;
7495;SDS011;3789;47.064;15.482;2022-07-04T14:14:40;5.88;;;4.82;;
7495;SDS011;3789;47.064;15.482;2022-07-04T14:17:08;4.28;;;3.97;;
7495;SDS011;3789;47.064;15.482;2022-07-04T14:19:56;5.45;;;4.88;;
7495;SDS011;3789;47.064;15.482;2022-07-04T14:22:23;5.22;;;4.82;;
7495;SDS011;3789;47.064;15.482;2022-07-04T14:24:51;4.88;;;4.40;;
7495;SDS011;3789;47.064;15.482;2022-07-04T14:27:18;4.75;;;4.38;;
7495;SDS011;3789;47.064;15.482;2022-07-04T14:29:45;5.28;;;4.38;;
7495;SDS011;3789;47.064;15.482;2022-07-04T14:32:13;5.25;;;4.80;;
7495;SDS011;3789;47.064;15.482;2022-07-04T14:34:40;5.53;;;4.47;;
7495;SDS011;3789;47.064;15.482;2022-07-04T14:37:08;5.15;;;4.75;;
7495;SDS011;3789;47.064;15.482;2022-07-04T14:39:35;4.97;;;4.60;;
7495;SDS011;3789;47.064;15.482;2022-07-04T14:42:03;5.00;;;4.60;;
7495;SDS011;3789;47.064;15.482;2022-07-04T14:44:30;5.05;;;4.55;;
7495;SDS011;3789;47.064;15.482;2022-07-04T14:46:57;5.30;;;4.90;;
7495;SDS011;3789;47.064;15.482;2022-07-04T14:49:24;5.28;;;4.72;;
7495;SDS011;3789;47.064;15.482;2022-07-04T14:51:51;5.22;;;4.60;;
7495;SDS011;3789;47.064;15.482;2022-07-04T14:54:19;5.25;;;4.55;;
7495;SDS011;3789;47.064;15.482;2022-07-04T14:56:46;4.75;;;4.40;;
7495;SDS011;3789;47.064;15.482;2022-07-04T14:59:13;4.43;;;4.05;;
7495;SDS011;3789;47.064;15.482;2022-07-04T15:01:40;4.65;;;4.10;;
7495;SDS011;3789;47.064;15.482;2022-07-04T15:04:08;4.75;;;4.20;;
7495;SDS011;3789;47.064;15.482;2022-07-04T15:06:35;5.20;;;4.40;;
7495;SDS011;3789;47.064;15.482;2022-07-04T15:09:03;4.80;;;4.40;;
7495;SDS011;3789;47.064;15.482;2022-07-04T15:11:35;4.43;;;4.10;;
7495;SDS011;3789;47.064;15.482;2022-07-04T15:14:02;4.47;;;4.18;;
7495;SDS011;3789;47.064;15.482;2022-07-04T15:16:29;4.38;;;4.07;;
7495;SDS011;3789;47.064;15.482;2022-07-04T15:18:56;4.97;;;4.40;;
7495;SDS011;3789;47.064;15.482;2022-07-04T15:21:24;6.90;;;4.55;;
7495;SDS011;3789;47.064;15.482;2022-07-04T15:24:09;5.05;;;4.40;;
7495;SDS011;3789;47.064;15.482;2022-07-04T15:26:47;5.30;;;4.40;;
7495;SDS011;3789;47.064;15.482;2022-07-04T15:29:20;4.53;;;4.22;;
7495;SDS011;3789;47.064;15.482;2022-07-04T15:31:49;4.68;;;4.28;;
7495;SDS011;3789;47.064;15.482;2022-07-04T15:34:16;4.40;;;3.95;;
7495;SDS011;3789;47.064;15.482;2022-07-04T15:36:44;4.28;;;3.90;;
7495;SDS011;3789;47.064;15.482;2022-07-04T15:39:13;4.88;;;3.80;;
7495;SDS011;3789;47.064;15.482;2022-07-04T15:41:41;4.18;;;3.88;;
7495;SDS011;3789;47.064;15.482;2022-07-04T15:44:11;4.25;;;3.85;;
7495;SDS011;3789;47.064;15.482;2022-07-04T15:46:38;4.50;;;4.05;;
7495;SDS011;3789;47.064;15.482;2022-07-04T15:49:26;4.88;;;4.47;;
7495;SDS011;3789;47.064;15.482;2022-07-04T15:51:53;4.25;;;3.85;;